sensor_id;sensor_type;location;lat;lon;timestamp;P1;durP1;ratioP1;P2;durP2;ratioP2
45114;SDS011;30877;43.706;10.780;2022-12-11T00:01:14;5.53;;;3.05;;
45114;SDS011;30877;43.706;10.780;2022-12-11T00:03:44;4.60;;;2.90;;
45114;SDS011;30877;43.706;10.780;2022-12-11T00:06:14;6.07;;;3.20;;
45114;SDS011;30877;43.706;10.780;2022-12-11T00:08:45;4.60;;;2.88;;
45114;SDS011;30877;43.706;10.780;2022-12-11T00:11:14;4.80;;;2.15;;
45114;SDS011;30877;43.706;10.780;2022-12-11T00:13:47;6.40;;;2.08;;
45114;SDS011;30877;43.706;10.780;2022-12-11T00:16:16;4.47;;;2.78;;
45114;SDS011;30877;43.706;10.780;2022-12-11T00:18:52;4.53;;;1.98;;
45114;SDS011;30877;43.706;10.780;2022-12-11T00:21:20;7.80;;;2.45;;
45114;SDS011;30877;43.706;10.780;2022-12-11T00:23:48;5.03;;;2.42;;
45114;SDS011;30877;43.706;10.780;2022-12-11T00:26:18;4.38;;;2.05;;
45114;SDS011;30877;43.706;10.780;2022-12-11T00:28:50;3.20;;;1.95;;
45114;SDS011;30877;43.706;10.780;2022-12-11T00:31:20;4.78;;;2.17;;
45114;SDS011;30877;43.706;10.780;2022-12-11T00:33:49;4.25;;;2.20;;
45114;SDS011;30877;43.706;10.780;2022-12-11T00:36:18;4.70;;;2.38;;
45114;SDS011;30877;43.706;10.780;2022-12-11T00:38:48;4.18;;;1.90;;
45114;SDS011;30877;43.706;10.780;2022-12-11T00:41:17;5.05;;;2.42;;
45114;SDS011;30877;43.706;10.780;2022-12-11T00:43:46;5.40;;;2.08;;
45114;SDS011;30877;43.706;10.780;2022-12-11T00:46:16;3.50;;;1.80;;
45114;SDS011;30877;43.706;10.780;2022-12-11T00:48:44;5.38;;;2.40;;
45114;SDS011;30877;43.706;10.780;2022-12-11T00:51:12;3.72;;;1.90;;
45114;SDS011;30877;43.706;10.780;2022-12-11T00:53:41;5.22;;;2.70;;
45114;SDS011;30877;43.706;10.780;2022-12-11T00:56:10;4.78;;;2.20;;
45114;SDS011;30877;43.706;10.780;2022-12-11T00:58:42;4.35;;;2.42;;
45114;SDS011;30877;43.706;10.780;2022-12-11T01:01:12;3.20;;;2.25;;
45114;SDS011;30877;43.706;10.780;2022-12-11T01:03:43;6.20;;;2.50;;
45114;SDS011;30877;43.706;10.780;2022-12-11T01:06:13;4.03;;;3.10;;
45114;SDS011;30877;43.706;10.780;2022-12-11T01:08:42;6.53;;;2.50;;
45114;SDS011;30877;43.706;10.780;2022-12-11T01:11:12;4.82;;;2.60;;
45114;SDS011;30877;43.706;10.780;2022-12-11T01:13:42;4.35;;;2.42;;
45114;SDS011;30877;43.706;10.780;2022-12-11T01:16:11;4.88;;;2.55;;
45114;SDS011;30877;43.706;10.780;2022-12-11T01:18:43;4.10;;;2.65;;
45114;SDS011;30877;43.706;10.780;2022-12-11T01:21:12;4.53;;;3.25;;
45114;SDS011;30877;43.706;10.780;2022-12-11T01:23:41;5.78;;;3.85;;
45114;SDS011;30877;43.706;10.780;2022-12-11T01:26:11;8.45;;;3.80;;
45114;SDS011;30877;43.706;10.780;2022-12-11T01:28:41;7.75;;;4.25;;
45114;SDS011;30877;43.706;10.780;2022-12-11T01:31:13;5.45;;;3.03;;
45114;SDS011;30877;43.706;10.780;2022-12-11T01:33:45;6.03;;;3.20;;
45114;SDS011;30877;43.706;10.780;2022-12-11T01:36:15;8.73;;;3.80;;
45114;SDS011;30877;43.706;10.780;2022-12-11T01:38:46;4.78;;;2.80;;
45114;SDS011;30877;43.706;10.780;2022-12-11T01:41:16;4.45;;;2.60;;
45114;SDS011;30877;43.706;10.780;2022-12-11T01:43:59;3.85;;;2.67;;
45114;SDS011;30877;43.706;10.780;2022-12-11T01:46:30;6.10;;;3.40;;
45114;SDS011;30877;43.706;10.780;2022-12-11T01:49:02;3.15;;;2.60;;
45114;SDS011;30877;43.706;10.780;2022-12-11T01:51:34;3.67;;;2.80;;
45114;SDS011;30877;43.706;10.780;2022-12-11T01:54:09;3.90;;;2.33;;
45114;SDS011;30877;43.706;10.780;2022-12-11T01:56:40;3.10;;;2.03;;
45114;SDS011;30877;43.706;10.780;2022-12-11T01:59:10;3.92;;;2.05;;
45114;SDS011;30877;43.706;10.780;2022-12-11T02:01:42;4.10;;;2.00;;
45114;SDS011;30877;43.706;10.780;2022-12-11T02:04:16;2.63;;;1.80;;
45114;SDS011;30877;43.706;10.780;2022-12-11T02:06:46;3.55;;;1.90;;
45114;SDS011;30877;43.706;10.780;2022-12-11T02:09:18;2.90;;;2.55;;
45114;SDS011;30877;43.706;10.780;2022-12-11T02:11:51;3.25;;;2.45;;
45114;SDS011;30877;43.706;10.780;2022-12-11T02:14:26;3.70;;;2.55;;
45114;SDS011;30877;43.706;10.780;2022-12-11T02:19:40;2.45;;;2.08;;
45114;SDS011;30877;43.706;10.780;2022-12-11T02:22:21;4.72;;;2.60;;
45114;SDS011;30877;43.706;10.780;2022-12-11T02:25:02;3.55;;;2.65;;
45114;SDS011;30877;43.706;10.780;2022-12-11T02:27:39;6.32;;;3.08;;
45114;SDS011;30877;43.706;10.780;2022-12-11T02:30:14;4.25;;;3.10;;
45114;SDS011;30877;43.706;10.780;2022-12-11T02:32:44;4.25;;;3.60;;
45114;SDS011;30877;43.706;10.780;2022-12-11T02:35:16;6.07;;;3.42;;
45114;SDS011;30877;43.706;10.780;2022-12-11T02:37:49;5.68;;;3.40;;
45114;SDS011;30877;43.706;10.780;2022-12-11T02:40:22;5.32;;;3.10;;
45114;SDS011;30877;43.706;10.780;2022-12-11T02:42:54;6.80;;;3.55;;
45114;SDS011;30877;43.706;10.780;2022-12-11T02:45:29;4.63;;;2.50;;
45114;SDS011;30877;43.706;10.780;2022-12-11T02:47:59;4.93;;;2.58;;
45114;SDS011;30877;43.706;10.780;2022-12-11T02:50:30;6.00;;;2.28;;
45114;SDS011;30877;43.706;10.780;2022-12-11T02:53:03;3.75;;;2.03;;
45114;SDS011;30877;43.706;10.780;2022-12-11T02:55:34;7.63;;;1.83;;
45114;SDS011;30877;43.706;10.780;2022-12-11T02:58:05;4.88;;;1.63;;
45114;SDS011;30877;43.706;10.780;2022-12-11T03:00:46;4.63;;;1.50;;
45114;SDS011;30877;43.706;10.780;2022-12-11T03:03:17;3.78;;;1.45;;
45114;SDS011;30877;43.706;10.780;2022-12-11T03:05:51;5.07;;;1.60;;
45114;SDS011;30877;43.706;10.780;2022-12-11T03:08:23;9.13;;;1.20;;
45114;SDS011;30877;43.706;10.780;2022-12-11T03:10:54;3.45;;;1.20;;
45114;SDS011;30877;43.706;10.780;2022-12-11T03:13:26;4.20;;;1.63;;
45114;SDS011;30877;43.706;10.780;2022-12-11T03:16:05;4.72;;;1.48;;
45114;SDS011;30877;43.706;10.780;2022-12-11T03:18:43;8.70;;;1.50;;
45114;SDS011;30877;43.706;10.780;2022-12-11T03:21:21;4.43;;;1.35;;
45114;SDS011;30877;43.706;10.780;2022-12-11T03:23:56;4.93;;;1.23;;
45114;SDS011;30877;43.706;10.780;2022-12-11T03:26:31;8.43;;;1.73;;
45114;SDS011;30877;43.706;10.780;2022-12-11T03:29:06;7.67;;;1.43;;
45114;SDS011;30877;43.706;10.780;2022-12-11T03:31:44;7.97;;;1.35;;
45114;SDS011;30877;43.706;10.780;2022-12-11T03:34:22;5.63;;;1.55;;
45114;SDS011;30877;43.706;10.780;2022-12-11T03:36:56;3.80;;;1.23;;
45114;SDS011;30877;43.706;10.780;2022-12-11T03:39:28;6.25;;;1.50;;
45114;SDS011;30877;43.706;10.780;2022-12-11T03:41:58;6.00;;;1.52;;
45114;SDS011;30877;43.706;10.780;2022-12-11T03:44:29;5.22;;;2.08;;
45114;SDS011;30877;43.706;10.780;2022-12-11T03:47:02;6.45;;;1.67;;
45114;SDS011;30877;43.706;10.780;2022-12-11T03:49:34;11.68;;;1.80;;
45114;SDS011;30877;43.706;10.780;2022-12-11T03:52:05;6.65;;;1.70;;
45114;SDS011;30877;43.706;10.780;2022-12-11T03:54:39;9.10;;;1.60;;
45114;SDS011;30877;43.706;10.780;2022-12-11T03:57:10;5.50;;;1.60;;
45114;SDS011;30877;43.706;10.780;2022-12-11T03:59:42;7.80;;;1.95;;
45114;SDS011;30877;43.706;10.780;2022-12-11T04:02:13;8.98;;;2.08;;
45114;SDS011;30877;43.706;10.780;2022-12-11T04:04:41;5.90;;;1.67;;
45114;SDS011;30877;43.706;10.780;2022-12-11T04:07:10;9.00;;;2.05;;
45114;SDS011;30877;43.706;10.780;2022-12-11T04:09:39;8.63;;;1.70;;
45114;SDS011;30877;43.706;10.780;2022-12-11T04:12:08;11.65;;;2.10;;
45114;SDS011;30877;43.706;10.780;2022-12-11T04:14:36;8.32;;;2.25;;
45114;SDS011;30877;43.706;10.780;2022-12-11T04:17:24;10.32;;;1.70;;
45114;SDS011;30877;43.706;10.780;2022-12-11T04:20:12;6.55;;;1.90;;
45114;SDS011;30877;43.706;10.780;2022-12-11T04:22:59;8.02;;;1.95;;
45114;SDS011;30877;43.706;10.780;2022-12-11T04:25:48;6.15;;;1.85;;
45114;SDS011;30877;43.706;10.780;2022-12-11T04:28:17;7.95;;;2.05;;
45114;SDS011;30877;43.706;10.780;2022-12-11T04:30:47;5.97;;;1.42;;
45114;SDS011;30877;43.706;10.780;2022-12-11T04:33:17;6.30;;;1.77;;
45114;SDS011;30877;43.706;10.780;2022-12-11T04:35:46;7.75;;;2.10;;
45114;SDS011;30877;43.706;10.780;2022-12-11T04:38:14;6.10;;;1.73;;
45114;SDS011;30877;43.706;10.780;2022-12-11T04:40:43;6.05;;;1.63;;
45114;SDS011;30877;43.706;10.780;2022-12-11T04:43:11;6.72;;;2.28;;
45114;SDS011;30877;43.706;10.780;2022-12-11T04:45:39;8.00;;;2.30;;
45114;SDS011;30877;43.706;10.780;2022-12-11T04:48:08;6.80;;;1.80;;
45114;SDS011;30877;43.706;10.780;2022-12-11T04:50:39;5.20;;;1.50;;
45114;SDS011;30877;43.706;10.780;2022-12-11T04:53:08;10.73;;;2.78;;
45114;SDS011;30877;43.706;10.780;2022-12-11T04:55:38;7.65;;;2.30;;
45114;SDS011;30877;43.706;10.780;2022-12-11T04:58:07;6.88;;;2.20;;
45114;SDS011;30877;43.706;10.780;2022-12-11T05:00:36;6.85;;;2.65;;
45114;SDS011;30877;43.706;10.780;2022-12-11T05:03:06;6.45;;;2.10;;
45114;SDS011;30877;43.706;10.780;2022-12-11T05:05:35;6.88;;;1.80;;
45114;SDS011;30877;43.706;10.780;2022-12-11T05:08:06;12.18;;;1.83;;
45114;SDS011;30877;43.706;10.780;2022-12-11T05:10:35;7.97;;;2.00;;
45114;SDS011;30877;43.706;10.780;2022-12-11T05:13:30;17.45;;;3.20;;
45114;SDS011;30877;43.706;10.780;2022-12-11T05:15:59;14.52;;;3.17;;
45114;SDS011;30877;43.706;10.780;2022-12-11T05:18:31;9.73;;;1.67;;
45114;SDS011;30877;43.706;10.780;2022-12-11T05:21:00;8.77;;;1.75;;
45114;SDS011;30877;43.706;10.780;2022-12-11T05:23:32;8.95;;;1.95;;
45114;SDS011;30877;43.706;10.780;2022-12-11T05:26:03;10.07;;;1.83;;
45114;SDS011;30877;43.706;10.780;2022-12-11T05:28:34;10.48;;;1.75;;
45114;SDS011;30877;43.706;10.780;2022-12-11T05:31:05;10.00;;;1.88;;
45114;SDS011;30877;43.706;10.780;2022-12-11T05:33:35;14.82;;;2.28;;
45114;SDS011;30877;43.706;10.780;2022-12-11T05:36:04;8.02;;;1.98;;
45114;SDS011;30877;43.706;10.780;2022-12-11T05:38:35;9.63;;;1.70;;
45114;SDS011;30877;43.706;10.780;2022-12-11T05:41:04;10.68;;;2.58;;
45114;SDS011;30877;43.706;10.780;2022-12-11T05:43:34;8.07;;;1.60;;
45114;SDS011;30877;43.706;10.780;2022-12-11T05:46:06;9.07;;;1.92;;
45114;SDS011;30877;43.706;10.780;2022-12-11T05:48:36;8.05;;;1.65;;
45114;SDS011;30877;43.706;10.780;2022-12-11T05:51:05;6.25;;;1.80;;
45114;SDS011;30877;43.706;10.780;2022-12-11T05:53:36;8.43;;;1.75;;
45114;SDS011;30877;43.706;10.780;2022-12-11T05:56:07;10.27;;;2.03;;
45114;SDS011;30877;43.706;10.780;2022-12-11T05:58:37;8.80;;;1.92;;
45114;SDS011;30877;43.706;10.780;2022-12-11T06:01:06;8.55;;;2.10;;
45114;SDS011;30877;43.706;10.780;2022-12-11T06:03:34;9.77;;;2.05;;
45114;SDS011;30877;43.706;10.780;2022-12-11T06:06:02;5.00;;;1.92;;
45114;SDS011;30877;43.706;10.780;2022-12-11T06:08:31;5.78;;;1.98;;
45114;SDS011;30877;43.706;10.780;2022-12-11T06:11:02;5.75;;;1.38;;
45114;SDS011;30877;43.706;10.780;2022-12-11T06:13:30;5.53;;;1.55;;
45114;SDS011;30877;43.706;10.780;2022-12-11T06:15:59;3.45;;;1.10;;
45114;SDS011;30877;43.706;10.780;2022-12-11T06:18:29;3.03;;;1.02;;
45114;SDS011;30877;43.706;10.780;2022-12-11T06:20:57;2.80;;;1.00;;
45114;SDS011;30877;43.706;10.780;2022-12-11T06:23:26;3.58;;;1.35;;
45114;SDS011;30877;43.706;10.780;2022-12-11T06:25:54;1.25;;;0.60;;
45114;SDS011;30877;43.706;10.780;2022-12-11T06:28:24;1.92;;;0.60;;
45114;SDS011;30877;43.706;10.780;2022-12-11T06:30:52;1.67;;;0.63;;
45114;SDS011;30877;43.706;10.780;2022-12-11T06:33:21;1.27;;;0.45;;
45114;SDS011;30877;43.706;10.780;2022-12-11T06:35:49;2.15;;;0.50;;
45114;SDS011;30877;43.706;10.780;2022-12-11T06:38:17;1.65;;;1.02;;
45114;SDS011;30877;43.706;10.780;2022-12-11T06:40:45;1.00;;;0.30;;
45114;SDS011;30877;43.706;10.780;2022-12-11T06:43:22;0.90;;;0.30;;
45114;SDS011;30877;43.706;10.780;2022-12-11T06:45:51;1.95;;;0.40;;
45114;SDS011;30877;43.706;10.780;2022-12-11T06:48:26;2.85;;;0.40;;
45114;SDS011;30877;43.706;10.780;2022-12-11T06:50:55;0.98;;;0.40;;
45114;SDS011;30877;43.706;10.780;2022-12-11T06:53:24;1.15;;;0.30;;
45114;SDS011;30877;43.706;10.780;2022-12-11T06:55:52;2.35;;;0.50;;
45114;SDS011;30877;43.706;10.780;2022-12-11T06:58:21;0.88;;;0.60;;
45114;SDS011;30877;43.706;10.780;2022-12-11T07:00:51;1.60;;;0.50;;
45114;SDS011;30877;43.706;10.780;2022-12-11T07:03:19;1.85;;;0.60;;
45114;SDS011;30877;43.706;10.780;2022-12-11T07:05:48;1.55;;;0.30;;
45114;SDS011;30877;43.706;10.780;2022-12-11T07:08:16;2.25;;;0.77;;
45114;SDS011;30877;43.706;10.780;2022-12-11T07:10:44;1.65;;;0.40;;
45114;SDS011;30877;43.706;10.780;2022-12-11T07:13:13;1.23;;;0.40;;
45114;SDS011;30877;43.706;10.780;2022-12-11T07:15:43;2.63;;;1.23;;
45114;SDS011;30877;43.706;10.780;2022-12-11T07:18:12;1.23;;;0.70;;
45114;SDS011;30877;43.706;10.780;2022-12-11T07:20:40;1.10;;;0.52;;
45114;SDS011;30877;43.706;10.780;2022-12-11T07:23:09;2.92;;;0.60;;
45114;SDS011;30877;43.706;10.780;2022-12-11T07:25:38;1.83;;;0.50;;
45114;SDS011;30877;43.706;10.780;2022-12-11T07:30:57;1.30;;;0.60;;
45114;SDS011;30877;43.706;10.780;2022-12-11T07:33:25;0.85;;;0.40;;
45114;SDS011;30877;43.706;10.780;2022-12-11T07:35:53;1.17;;;0.60;;
45114;SDS011;30877;43.706;10.780;2022-12-11T07:38:21;3.58;;;0.90;;
45114;SDS011;30877;43.706;10.780;2022-12-11T07:40:49;1.45;;;0.60;;
45114;SDS011;30877;43.706;10.780;2022-12-11T07:43:17;1.25;;;0.73;;
45114;SDS011;30877;43.706;10.780;2022-12-11T07:45:46;2.42;;;0.90;;
45114;SDS011;30877;43.706;10.780;2022-12-11T07:48:16;1.23;;;0.73;;
45114;SDS011;30877;43.706;10.780;2022-12-11T07:50:44;1.25;;;0.70;;
45114;SDS011;30877;43.706;10.780;2022-12-11T07:53:12;3.13;;;0.90;;
45114;SDS011;30877;43.706;10.780;2022-12-11T07:55:41;1.52;;;0.80;;
45114;SDS011;30877;43.706;10.780;2022-12-11T07:58:09;2.47;;;0.70;;
45114;SDS011;30877;43.706;10.780;2022-12-11T08:00:37;2.20;;;0.80;;
45114;SDS011;30877;43.706;10.780;2022-12-11T08:03:05;0.95;;;0.50;;
45114;SDS011;30877;43.706;10.780;2022-12-11T08:05:35;1.60;;;0.70;;
45114;SDS011;30877;43.706;10.780;2022-12-11T08:08:03;1.73;;;0.80;;
45114;SDS011;30877;43.706;10.780;2022-12-11T08:10:31;2.15;;;0.93;;
45114;SDS011;30877;43.706;10.780;2022-12-11T08:12:59;1.75;;;0.90;;
45114;SDS011;30877;43.706;10.780;2022-12-11T08:15:28;1.67;;;0.95;;
45114;SDS011;30877;43.706;10.780;2022-12-11T08:17:56;2.20;;;1.00;;
45114;SDS011;30877;43.706;10.780;2022-12-11T08:20:24;2.00;;;1.20;;
45114;SDS011;30877;43.706;10.780;2022-12-11T08:22:54;3.15;;;1.25;;
45114;SDS011;30877;43.706;10.780;2022-12-11T08:25:25;2.35;;;1.05;;
45114;SDS011;30877;43.706;10.780;2022-12-11T08:27:53;2.33;;;1.20;;
45114;SDS011;30877;43.706;10.780;2022-12-11T08:30:21;1.42;;;0.90;;
45114;SDS011;30877;43.706;10.780;2022-12-11T08:32:49;1.83;;;1.05;;
45114;SDS011;30877;43.706;10.780;2022-12-11T08:35:17;2.30;;;0.93;;
45114;SDS011;30877;43.706;10.780;2022-12-11T08:37:45;6.85;;;3.50;;
45114;SDS011;30877;43.706;10.780;2022-12-11T08:40:16;2.95;;;1.73;;
45114;SDS011;30877;43.706;10.780;2022-12-11T08:42:44;3.75;;;1.38;;
45114;SDS011;30877;43.706;10.780;2022-12-11T08:45:12;2.45;;;1.20;;
45114;SDS011;30877;43.706;10.780;2022-12-11T08:47:40;2.90;;;1.77;;
45114;SDS011;30877;43.706;10.780;2022-12-11T08:50:09;2.80;;;1.50;;
45114;SDS011;30877;43.706;10.780;2022-12-11T08:52:37;2.83;;;1.67;;
45114;SDS011;30877;43.706;10.780;2022-12-11T08:55:07;1.73;;;1.00;;
45114;SDS011;30877;43.706;10.780;2022-12-11T08:57:37;2.15;;;1.00;;
45114;SDS011;30877;43.706;10.780;2022-12-11T09:00:06;4.15;;;1.35;;
45114;SDS011;30877;43.706;10.780;2022-12-11T09:02:38;1.50;;;1.13;;
45114;SDS011;30877;43.706;10.780;2022-12-11T09:05:07;1.85;;;1.02;;
45114;SDS011;30877;43.706;10.780;2022-12-11T09:07:36;3.20;;;1.67;;
45114;SDS011;30877;43.706;10.780;2022-12-11T09:10:06;5.50;;;2.10;;
45114;SDS011;30877;43.706;10.780;2022-12-11T09:12:37;4.60;;;1.48;;
45114;SDS011;30877;43.706;10.780;2022-12-11T09:15:06;4.05;;;1.42;;
45114;SDS011;30877;43.706;10.780;2022-12-11T09:17:34;13.23;;;7.30;;
45114;SDS011;30877;43.706;10.780;2022-12-11T09:20:03;5.35;;;2.58;;
45114;SDS011;30877;43.706;10.780;2022-12-11T09:22:32;4.00;;;2.08;;
45114;SDS011;30877;43.706;10.780;2022-12-11T09:25:00;2.55;;;1.35;;
45114;SDS011;30877;43.706;10.780;2022-12-11T09:27:28;3.17;;;1.42;;
45114;SDS011;30877;43.706;10.780;2022-12-11T09:29:58;2.65;;;1.05;;
45114;SDS011;30877;43.706;10.780;2022-12-11T09:32:26;3.17;;;1.67;;
45114;SDS011;30877;43.706;10.780;2022-12-11T09:34:54;2.92;;;1.20;;
45114;SDS011;30877;43.706;10.780;2022-12-11T09:37:23;3.83;;;1.45;;
45114;SDS011;30877;43.706;10.780;2022-12-11T09:39:51;4.00;;;1.60;;
45114;SDS011;30877;43.706;10.780;2022-12-11T09:42:20;5.47;;;1.48;;
45114;SDS011;30877;43.706;10.780;2022-12-11T09:44:53;3.10;;;1.08;;
45114;SDS011;30877;43.706;10.780;2022-12-11T09:47:26;3.20;;;1.08;;
45114;SDS011;30877;43.706;10.780;2022-12-11T09:50:02;3.45;;;1.95;;
45114;SDS011;30877;43.706;10.780;2022-12-11T09:52:41;2.33;;;1.23;;
45114;SDS011;30877;43.706;10.780;2022-12-11T09:55:18;1.95;;;0.82;;
45114;SDS011;30877;43.706;10.780;2022-12-11T09:57:52;3.50;;;1.80;;
45114;SDS011;30877;43.706;10.780;2022-12-11T10:00:26;2.45;;;1.42;;
45114;SDS011;30877;43.706;10.780;2022-12-11T10:03:05;3.90;;;1.55;;
45114;SDS011;30877;43.706;10.780;2022-12-11T10:05:51;4.47;;;1.20;;
45114;SDS011;30877;43.706;10.780;2022-12-11T10:08:32;4.18;;;1.77;;
45114;SDS011;30877;43.706;10.780;2022-12-11T10:11:17;2.42;;;1.40;;
45114;SDS011;30877;43.706;10.780;2022-12-11T10:13:59;3.95;;;1.85;;
45114;SDS011;30877;43.706;10.780;2022-12-11T10:16:35;2.58;;;1.60;;
45114;SDS011;30877;43.706;10.780;2022-12-11T10:19:09;3.03;;;1.80;;
45114;SDS011;30877;43.706;10.780;2022-12-11T10:21:44;4.00;;;1.80;;
45114;SDS011;30877;43.706;10.780;2022-12-11T10:24:17;2.45;;;1.30;;
45114;SDS011;30877;43.706;10.780;2022-12-11T10:27:13;3.33;;;1.27;;
45114;SDS011;30877;43.706;10.780;2022-12-11T10:29:45;1.73;;;1.00;;
45114;SDS011;30877;43.706;10.780;2022-12-11T10:32:15;4.00;;;1.20;;
45114;SDS011;30877;43.706;10.780;2022-12-11T10:34:52;4.32;;;1.83;;
45114;SDS011;30877;43.706;10.780;2022-12-11T10:37:28;3.88;;;2.20;;
45114;SDS011;30877;43.706;10.780;2022-12-11T10:39:56;2.83;;;1.80;;
45114;SDS011;30877;43.706;10.780;2022-12-11T10:42:25;3.65;;;2.38;;
45114;SDS011;30877;43.706;10.780;2022-12-11T10:44:57;3.45;;;2.45;;
45114;SDS011;30877;43.706;10.780;2022-12-11T10:47:27;5.35;;;3.40;;
45114;SDS011;30877;43.706;10.780;2022-12-11T10:49:57;4.15;;;2.50;;
45114;SDS011;30877;43.706;10.780;2022-12-11T10:52:27;4.75;;;3.10;;
45114;SDS011;30877;43.706;10.780;2022-12-11T10:54:59;3.60;;;3.30;;
45114;SDS011;30877;43.706;10.780;2022-12-11T10:57:30;3.95;;;2.63;;
45114;SDS011;30877;43.706;10.780;2022-12-11T11:00:01;4.30;;;2.13;;
45114;SDS011;30877;43.706;10.780;2022-12-11T11:02:33;2.45;;;1.92;;
45114;SDS011;30877;43.706;10.780;2022-12-11T11:05:15;2.88;;;1.98;;
45114;SDS011;30877;43.706;10.780;2022-12-11T11:08:01;2.90;;;1.80;;
45114;SDS011;30877;43.706;10.780;2022-12-11T11:10:50;4.13;;;1.55;;
45114;SDS011;30877;43.706;10.780;2022-12-11T11:13:20;2.55;;;1.35;;
45114;SDS011;30877;43.706;10.780;2022-12-11T11:15:57;2.05;;;1.50;;
45114;SDS011;30877;43.706;10.780;2022-12-11T11:18:27;3.22;;;1.65;;
45114;SDS011;30877;43.706;10.780;2022-12-11T11:20:58;2.67;;;1.60;;
45114;SDS011;30877;43.706;10.780;2022-12-11T11:23:27;2.78;;;1.10;;
45114;SDS011;30877;43.706;10.780;2022-12-11T11:25:56;3.25;;;1.20;;
45114;SDS011;30877;43.706;10.780;2022-12-11T11:28:26;1.48;;;1.00;;
45114;SDS011;30877;43.706;10.780;2022-12-11T11:31:01;2.70;;;1.02;;
45114;SDS011;30877;43.706;10.780;2022-12-11T11:33:32;2.42;;;1.00;;
45114;SDS011;30877;43.706;10.780;2022-12-11T11:36:04;2.35;;;1.13;;
45114;SDS011;30877;43.706;10.780;2022-12-11T11:38:34;2.47;;;1.30;;
45114;SDS011;30877;43.706;10.780;2022-12-11T11:41:08;2.67;;;1.55;;
45114;SDS011;30877;43.706;10.780;2022-12-11T11:43:42;2.50;;;1.48;;
45114;SDS011;30877;43.706;10.780;2022-12-11T11:46:13;2.35;;;1.48;;
45114;SDS011;30877;43.706;10.780;2022-12-11T11:48:48;2.30;;;1.48;;
45114;SDS011;30877;43.706;10.780;2022-12-11T11:51:23;1.92;;;1.20;;
45114;SDS011;30877;43.706;10.780;2022-12-11T11:53:55;2.45;;;1.48;;
45114;SDS011;30877;43.706;10.780;2022-12-11T11:56:26;1.58;;;1.00;;
45114;SDS011;30877;43.706;10.780;2022-12-11T11:59:00;2.45;;;1.13;;
45114;SDS011;30877;43.706;10.780;2022-12-11T12:01:32;3.88;;;1.65;;
45114;SDS011;30877;43.706;10.780;2022-12-11T12:04:00;2.28;;;1.33;;
45114;SDS011;30877;43.706;10.780;2022-12-11T12:06:37;3.83;;;1.77;;
45114;SDS011;30877;43.706;10.780;2022-12-11T12:09:25;3.33;;;1.48;;
45114;SDS011;30877;43.706;10.780;2022-12-11T12:12:08;5.35;;;1.80;;
45114;SDS011;30877;43.706;10.780;2022-12-11T12:14:57;1.92;;;1.10;;
45114;SDS011;30877;43.706;10.780;2022-12-11T12:17:38;2.20;;;1.52;;
45114;SDS011;30877;43.706;10.780;2022-12-11T12:20:23;2.40;;;1.38;;
45114;SDS011;30877;43.706;10.780;2022-12-11T12:23:01;1.60;;;1.08;;
45114;SDS011;30877;43.706;10.780;2022-12-11T12:25:48;2.97;;;1.50;;
45114;SDS011;30877;43.706;10.780;2022-12-11T12:28:34;2.00;;;1.17;;
45114;SDS011;30877;43.706;10.780;2022-12-11T12:31:11;2.75;;;1.80;;
45114;SDS011;30877;43.706;10.780;2022-12-11T12:33:51;2.65;;;1.45;;
45114;SDS011;30877;43.706;10.780;2022-12-11T12:36:29;2.53;;;1.60;;
45114;SDS011;30877;43.706;10.780;2022-12-11T12:39:04;2.75;;;2.03;;
45114;SDS011;30877;43.706;10.780;2022-12-11T12:41:42;2.83;;;1.95;;
45114;SDS011;30877;43.706;10.780;2022-12-11T12:44:19;3.30;;;2.05;;
45114;SDS011;30877;43.706;10.780;2022-12-11T12:46:50;3.40;;;2.05;;
45114;SDS011;30877;43.706;10.780;2022-12-11T12:49:34;3.72;;;2.47;;
45114;SDS011;30877;43.706;10.780;2022-12-11T12:52:06;4.00;;;1.83;;
45114;SDS011;30877;43.706;10.780;2022-12-11T12:54:41;3.20;;;2.30;;
45114;SDS011;30877;43.706;10.780;2022-12-11T12:57:31;4.07;;;2.40;;
45114;SDS011;30877;43.706;10.780;2022-12-11T13:00:01;3.80;;;2.83;;
45114;SDS011;30877;43.706;10.780;2022-12-11T13:02:46;3.42;;;2.35;;
45114;SDS011;30877;43.706;10.780;2022-12-11T13:05:20;4.57;;;2.50;;
45114;SDS011;30877;43.706;10.780;2022-12-11T13:07:51;3.67;;;2.58;;
45114;SDS011;30877;43.706;10.780;2022-12-11T13:10:23;2.92;;;1.83;;
45114;SDS011;30877;43.706;10.780;2022-12-11T13:12:55;3.13;;;2.25;;
45114;SDS011;30877;43.706;10.780;2022-12-11T13:15:29;2.58;;;2.15;;
45114;SDS011;30877;43.706;10.780;2022-12-11T13:18:00;4.43;;;2.60;;
45114;SDS011;30877;43.706;10.780;2022-12-11T13:20:30;4.38;;;2.47;;
45114;SDS011;30877;43.706;10.780;2022-12-11T13:23:19;2.80;;;2.33;;
45114;SDS011;30877;43.706;10.780;2022-12-11T13:25:56;4.90;;;2.50;;
45114;SDS011;30877;43.706;10.780;2022-12-11T13:28:30;3.67;;;2.08;;
45114;SDS011;30877;43.706;10.780;2022-12-11T13:31:02;3.45;;;2.47;;
45114;SDS011;30877;43.706;10.780;2022-12-11T13:33:37;3.05;;;2.13;;
45114;SDS011;30877;43.706;10.780;2022-12-11T13:39:02;2.58;;;2.22;;
45114;SDS011;30877;43.706;10.780;2022-12-11T13:41:34;3.50;;;2.60;;
45114;SDS011;30877;43.706;10.780;2022-12-11T13:44:04;6.72;;;4.40;;
45114;SDS011;30877;43.706;10.780;2022-12-11T13:46:33;8.73;;;5.13;;
45114;SDS011;30877;43.706;10.780;2022-12-11T13:49:16;8.70;;;5.78;;
45114;SDS011;30877;43.706;10.780;2022-12-11T13:51:50;7.72;;;5.32;;
45114;SDS011;30877;43.706;10.780;2022-12-11T13:54:19;5.32;;;3.90;;
45114;SDS011;30877;43.706;10.780;2022-12-11T13:56:57;4.85;;;3.10;;
45114;SDS011;30877;43.706;10.780;2022-12-11T13:59:28;4.32;;;3.13;;
45114;SDS011;30877;43.706;10.780;2022-12-11T14:01:59;3.35;;;2.67;;
45114;SDS011;30877;43.706;10.780;2022-12-11T14:04:31;5.93;;;3.42;;
45114;SDS011;30877;43.706;10.780;2022-12-11T14:07:01;4.72;;;3.00;;
45114;SDS011;30877;43.706;10.780;2022-12-11T14:09:33;3.60;;;2.85;;
45114;SDS011;30877;43.706;10.780;2022-12-11T14:12:11;4.78;;;3.55;;
45114;SDS011;30877;43.706;10.780;2022-12-11T14:14:44;4.10;;;2.90;;
45114;SDS011;30877;43.706;10.780;2022-12-11T14:17:22;3.40;;;2.88;;
45114;SDS011;30877;43.706;10.780;2022-12-11T14:19:52;3.87;;;2.90;;
45114;SDS011;30877;43.706;10.780;2022-12-11T14:22:21;3.47;;;2.85;;
45114;SDS011;30877;43.706;10.780;2022-12-11T14:24:52;4.30;;;3.08;;
45114;SDS011;30877;43.706;10.780;2022-12-11T14:27:23;4.05;;;3.05;;
45114;SDS011;30877;43.706;10.780;2022-12-11T14:29:52;3.85;;;2.90;;
45114;SDS011;30877;43.706;10.780;2022-12-11T14:32:22;3.88;;;3.08;;
45114;SDS011;30877;43.706;10.780;2022-12-11T14:37:26;4.25;;;3.25;;
45114;SDS011;30877;43.706;10.780;2022-12-11T14:39:55;4.00;;;3.30;;
45114;SDS011;30877;43.706;10.780;2022-12-11T14:42:28;5.40;;;3.92;;
45114;SDS011;30877;43.706;10.780;2022-12-11T14:44:59;4.75;;;3.75;;
45114;SDS011;30877;43.706;10.780;2022-12-11T14:47:33;4.57;;;3.72;;
45114;SDS011;30877;43.706;10.780;2022-12-11T14:50:07;5.15;;;3.33;;
45114;SDS011;30877;43.706;10.780;2022-12-11T14:52:43;5.83;;;3.37;;
45114;SDS011;30877;43.706;10.780;2022-12-11T14:55:15;4.80;;;3.17;;
45114;SDS011;30877;43.706;10.780;2022-12-11T14:57:47;6.32;;;3.55;;
45114;SDS011;30877;43.706;10.780;2022-12-11T15:00:21;5.07;;;3.55;;
45114;SDS011;30877;43.706;10.780;2022-12-11T15:02:57;5.95;;;3.83;;
45114;SDS011;30877;43.706;10.780;2022-12-11T15:05:28;4.18;;;3.30;;
45114;SDS011;30877;43.706;10.780;2022-12-11T15:08:14;5.05;;;3.80;;
45114;SDS011;30877;43.706;10.780;2022-12-11T15:10:57;4.97;;;3.53;;
45114;SDS011;30877;43.706;10.780;2022-12-11T15:13:29;6.22;;;3.67;;